Paducah, Kentucky
Current Conditions -  °F | °C
As of 7:53 AM on Friday 24 Oct 2014 (Local Time) from KPAH Reporting Station
Haze Haze  
Wind Chill: 46°   Ceiling: 4400
Heat Index: 46°   Visibility: 4mi
Dew Point: 44°   Wind: 0mph
Humidity: 93%   Direction: NA
Pressure: 30.13"   Gusts: NA
Location:  37.09°N, 88.59°W
Report Text: KPAH 241253Z 00000KT 4SM BR FEW027 OVC044 08/07 A3013 RMK AO2 SLP203 T00780067
Loading
Personal Weather Stations






























Interactive Weather Map New forecast layout! Learn more

10-Day Weather Forecast

Advertisements
Track Severe Weather on mobile